createdAt,value
2023-03-10T00:00:09.933Z,31.43
2023-03-10T00:00:45.395Z,31.48
2023-03-10T00:01:20.960Z,31.58
2023-03-10T00:01:56.847Z,31.40
2023-03-10T00:02:33.577Z,31.45
2023-03-10T00:03:09.659Z,31.44
2023-03-10T00:03:45.618Z,31.48
2023-03-10T00:04:21.640Z,31.39
2023-03-10T00:04:57.141Z,31.51
2023-03-10T00:05:33.613Z,31.38
2023-03-10T00:06:09.283Z,31.50
2023-03-10T00:06:44.679Z,31.50
2023-03-10T00:07:20.365Z,31.44
2023-03-10T00:07:56.779Z,31.41
2023-03-10T00:08:33.506Z,31.50
2023-03-10T00:09:09.414Z,31.28
2023-03-10T00:09:45.497Z,31.47
2023-03-10T00:10:21.515Z,31.42
2023-03-10T00:10:57.416Z,31.46
2023-03-10T00:11:33.034Z,31.41
2023-03-10T00:12:08.468Z,31.41
2023-03-10T00:12:44.437Z,31.21
2023-03-10T00:13:20.794Z,31.46
2023-03-10T00:13:56.862Z,31.46
2023-03-10T00:14:32.849Z,31.54
2023-03-10T00:15:09.188Z,31.50
2023-03-10T00:15:45.217Z,31.28
2023-03-10T00:16:21.752Z,31.39
2023-03-10T00:16:57.304Z,31.43
2023-03-10T00:17:32.785Z,31.47
2023-03-10T00:18:09.116Z,31.39
2023-03-10T00:18:45.044Z,31.40
2023-03-10T00:19:21.013Z,31.42
2023-03-10T00:19:57.662Z,31.30
2023-03-10T00:20:33.847Z,31.20
2023-03-10T00:21:09.771Z,31.28
2023-03-10T00:21:46.549Z,31.39
2023-03-10T00:22:22.355Z,31.35
2023-03-10T00:22:57.624Z,31.50
2023-03-10T00:23:37.015Z,31.39
2023-03-10T00:24:12.760Z,31.57
2023-03-10T00:24:48.722Z,31.49
2023-03-10T00:25:24.486Z,31.48
2023-03-10T00:26:00.872Z,31.50
2023-03-10T00:26:36.641Z,31.51
2023-03-10T00:27:12.614Z,31.53
2023-03-10T00:27:48.608Z,31.67
2023-03-10T00:28:24.271Z,31.65
2023-03-10T00:29:00.478Z,31.46
2023-03-10T00:29:36.406Z,31.44
2023-03-10T00:30:12.241Z,31.90
2023-03-10T00:30:48.605Z,31.77
2023-03-10T00:31:25.174Z,31.67
2023-03-10T00:32:01.340Z,31.66
2023-03-10T00:32:37.538Z,31.67
2023-03-10T00:33:13.277Z,31.87
2023-03-10T00:33:49.276Z,31.73
2023-03-10T00:34:25.590Z,31.75
2023-03-10T00:35:02.124Z,31.99
2023-03-10T00:35:38.350Z,31.81
2023-03-10T00:36:14.342Z,31.79
2023-03-10T00:36:50.833Z,31.69
2023-03-10T00:37:26.906Z,31.63
2023-03-10T00:38:03.222Z,31.73
2023-03-10T00:38:38.831Z,31.71
2023-03-10T00:39:14.326Z,32.01
2023-03-10T00:39:50.235Z,31.70
2023-03-10T00:40:25.822Z,31.75
2023-03-10T00:41:02.228Z,31.73
2023-03-10T00:41:38.245Z,31.78
2023-03-10T00:42:14.243Z,31.57
2023-03-10T00:42:50.002Z,31.66
2023-03-10T00:43:26.311Z,31.78
2023-03-10T00:44:02.318Z,31.84
2023-03-10T00:44:37.434Z,31.75
2023-03-10T00:45:13.614Z,31.75
2023-03-10T00:45:50.140Z,31.84
2023-03-10T00:46:26.162Z,31.92
2023-03-10T00:47:02.043Z,31.95
2023-03-10T00:47:37.874Z,31.82
2023-03-10T00:48:13.656Z,31.70
2023-03-10T00:48:49.277Z,31.80
2023-03-10T00:49:25.206Z,31.92
2023-03-10T00:50:00.838Z,31.94
2023-03-10T00:50:36.473Z,31.69
2023-03-10T00:51:12.608Z,31.79
2023-03-10T00:51:48.455Z,31.73
2023-03-10T00:52:24.428Z,31.67
2023-03-10T00:53:00.298Z,31.82
2023-03-10T00:53:36.004Z,32.13
2023-03-10T00:54:11.617Z,31.82
2023-03-10T00:54:47.769Z,31.77
2023-03-10T00:55:23.194Z,31.70
2023-03-10T00:55:59.139Z,31.79
2023-03-10T00:56:35.257Z,31.83
2023-03-10T00:57:11.473Z,31.94
2023-03-10T00:57:47.013Z,31.90
2023-03-10T00:58:22.387Z,32.04
2023-03-10T00:58:58.554Z,32.00
2023-03-10T00:59:47.933Z,32.15
2023-03-10T01:00:24.850Z,32.21
2023-03-10T01:01:00.755Z,32.04
2023-03-10T01:01:37.165Z,32.10
2023-03-10T01:02:12.991Z,32.03
2023-03-10T01:02:48.605Z,32.00
2023-03-10T01:03:24.173Z,31.97
2023-03-10T01:04:00.082Z,32.05
2023-03-10T01:04:36.458Z,32.04
2023-03-10T01:05:12.337Z,31.99
2023-03-10T01:05:48.326Z,31.96
2023-03-10T01:06:24.036Z,32.03
2023-03-10T01:06:59.965Z,32.02
2023-03-10T01:07:36.281Z,32.02
2023-03-10T01:08:11.538Z,31.98
2023-03-10T01:08:47.131Z,31.95
2023-03-10T01:09:23.441Z,32.06
2023-03-10T01:09:59.440Z,32.02
2023-03-10T01:10:35.096Z,32.01
2023-03-10T01:11:11.755Z,32.02
2023-03-10T01:11:47.372Z,32.13
2023-03-10T01:12:23.723Z,31.97
2023-03-10T01:12:59.389Z,32.10
2023-03-10T01:13:34.947Z,32.13
2023-03-10T01:14:10.839Z,32.16
2023-03-10T01:14:46.836Z,32.00
2023-03-10T01:15:22.453Z,32.03
2023-03-10T01:15:58.661Z,32.12
2023-03-10T01:16:34.957Z,32.12
2023-03-10T01:17:10.492Z,32.17
2023-03-10T01:17:46.060Z,32.06
2023-03-10T01:18:21.997Z,32.11
2023-03-10T01:18:57.162Z,32.18
2023-03-10T01:19:33.454Z,32.11
2023-03-10T01:20:09.515Z,32.08
2023-03-10T01:20:45.391Z,32.08
2023-03-10T01:21:21.372Z,32.13
2023-03-10T01:21:57.299Z,32.21
2023-03-10T01:22:33.215Z,32.03
2023-03-10T01:23:08.747Z,32.05
2023-03-10T01:23:44.965Z,32.01
2023-03-10T01:24:20.478Z,32.02
2023-03-10T01:24:55.917Z,31.96
2023-03-10T01:25:32.035Z,32.17
2023-03-10T01:26:08.414Z,32.08
2023-03-10T01:26:43.874Z,32.06
2023-03-10T01:27:20.192Z,32.10
2023-03-10T01:27:56.193Z,32.05
2023-03-10T01:28:31.661Z,32.20
2023-03-10T01:29:07.789Z,32.09
2023-03-10T01:29:43.324Z,32.08
2023-03-10T01:30:19.305Z,32.21
2023-03-10T01:30:55.448Z,32.03
2023-03-10T01:31:31.282Z,32.03
2023-03-10T01:32:06.821Z,32.15
2023-03-10T01:32:43.092Z,32.12
2023-03-10T01:33:19.217Z,32.18
2023-03-10T01:33:55.309Z,32.31
2023-03-10T01:34:30.975Z,32.33
2023-03-10T01:35:06.445Z,32.25
2023-03-10T01:35:43.011Z,32.17
2023-03-10T01:36:19.057Z,32.17
2023-03-10T01:36:55.402Z,32.33
2023-03-10T01:37:31.295Z,32.22
2023-03-10T01:38:07.254Z,32.14
2023-03-10T01:38:43.361Z,31.93
2023-03-10T01:39:18.968Z,32.16
2023-03-10T01:39:54.915Z,32.03
2023-03-10T01:40:30.327Z,32.04
2023-03-10T01:41:06.538Z,31.95
2023-03-10T01:41:42.647Z,32.07
2023-03-10T01:42:20.598Z,32.21
2023-03-10T01:42:57.339Z,32.11
2023-03-10T01:43:33.261Z,32.12
2023-03-10T01:44:09.110Z,32.08
2023-03-10T01:44:45.391Z,32.33
2023-03-10T01:45:21.812Z,32.23
2023-03-10T01:45:58.150Z,32.20
2023-03-10T01:46:35.867Z,32.13
2023-03-10T01:47:12.760Z,32.07
2023-03-10T01:47:49.548Z,32.11
2023-03-10T01:48:25.920Z,32.06
2023-03-10T01:49:02.267Z,32.00
2023-03-10T01:49:39.048Z,32.05
2023-03-10T01:50:15.340Z,31.85
2023-03-10T01:50:51.740Z,31.99
2023-03-10T01:51:27.682Z,32.01
2023-03-10T01:52:04.111Z,31.93
2023-03-10T01:52:39.943Z,31.89
2023-03-10T01:53:16.061Z,31.84
2023-03-10T01:53:51.580Z,31.92
2023-03-10T01:54:27.811Z,31.81
2023-03-10T01:55:04.781Z,31.84
2023-03-10T01:55:41.768Z,31.94
2023-03-10T01:56:17.943Z,31.83
2023-03-10T01:56:53.433Z,31.93
2023-03-10T01:57:30.245Z,31.79
2023-03-10T01:58:07.582Z,31.80
2023-03-10T01:58:44.585Z,31.73
2023-03-10T01:59:21.211Z,31.81
2023-03-10T01:59:57.975Z,31.84
2023-03-10T02:00:34.017Z,31.81
2023-03-10T02:01:10.803Z,31.92
2023-03-10T02:01:46.309Z,31.91
2023-03-10T02:02:22.191Z,31.55
2023-03-10T02:02:57.924Z,31.71
2023-03-10T02:03:34.783Z,31.75
2023-03-10T02:04:10.793Z,31.91
2023-03-10T02:04:47.006Z,31.75
2023-03-10T02:05:22.473Z,31.70
2023-03-10T02:05:57.835Z,31.78
2023-03-10T02:06:34.143Z,31.79
2023-03-10T02:07:10.427Z,31.92
2023-03-10T02:07:45.521Z,31.79
2023-03-10T02:08:22.104Z,31.70
2023-03-10T02:08:58.188Z,31.77
2023-03-10T02:09:33.477Z,31.72
2023-03-10T02:10:10.146Z,31.72
2023-03-10T02:10:46.561Z,31.61
2023-03-10T02:11:22.946Z,31.82
2023-03-10T02:11:59.207Z,31.72
2023-03-10T02:12:35.240Z,31.74
2023-03-10T02:13:11.233Z,31.79
2023-03-10T02:13:47.281Z,31.65
2023-03-10T02:14:23.360Z,31.89
2023-03-10T02:14:59.588Z,31.81
2023-03-10T02:15:35.389Z,31.84
2023-03-10T02:16:11.955Z,31.74
2023-03-10T02:16:48.060Z,31.79
2023-03-10T02:17:24.743Z,31.74
2023-03-10T02:18:00.749Z,31.72
2023-03-10T02:18:35.746Z,31.88
2023-03-10T02:19:11.332Z,31.70
2023-03-10T02:19:48.090Z,31.91
2023-03-10T02:20:24.178Z,31.80
2023-03-10T02:21:01.044Z,31.73
2023-03-10T02:21:37.778Z,31.75
2023-03-10T02:22:13.937Z,31.78
2023-03-10T02:22:49.991Z,31.82
2023-03-10T02:23:25.258Z,31.89
2023-03-10T02:24:01.855Z,31.73
2023-03-10T02:24:37.360Z,31.66
2023-03-10T02:25:13.436Z,31.75
2023-03-10T02:25:49.299Z,31.61
2023-03-10T02:26:25.994Z,31.83
2023-03-10T02:27:02.093Z,31.69
2023-03-10T02:27:37.727Z,31.67
2023-03-10T02:28:13.684Z,31.72
2023-03-10T02:28:49.141Z,31.68
2023-03-10T02:29:24.659Z,31.69
2023-03-10T02:30:00.349Z,31.87
2023-03-10T02:30:36.427Z,31.75
2023-03-10T02:31:12.237Z,31.66
2023-03-10T02:31:48.653Z,31.71
2023-03-10T02:32:24.854Z,31.58
2023-03-10T02:33:00.402Z,31.63
2023-03-10T02:33:36.659Z,31.58
2023-03-10T02:34:12.452Z,31.78
2023-03-10T02:34:47.618Z,31.56
2023-03-10T02:35:23.942Z,31.54
2023-03-10T02:35:59.966Z,31.68
2023-03-10T02:36:35.508Z,31.76
2023-03-10T02:37:11.760Z,31.74
2023-03-10T02:37:47.699Z,31.63
2023-03-10T02:38:23.869Z,31.64
2023-03-10T02:38:59.441Z,31.69
2023-03-10T02:39:35.458Z,31.62
2023-03-10T02:40:10.985Z,31.63
2023-03-10T02:40:47.042Z,31.58
2023-03-10T02:41:22.832Z,31.56
2023-03-10T02:41:58.921Z,31.52
2023-03-10T02:42:34.881Z,31.53
2023-03-10T02:43:10.988Z,31.61
2023-03-10T02:43:47.008Z,31.63
2023-03-10T02:44:23.320Z,31.51
2023-03-10T02:44:59.439Z,31.65
2023-03-10T02:45:35.212Z,31.58
2023-03-10T02:46:11.097Z,31.62
2023-03-10T02:46:46.898Z,31.60
2023-03-10T02:47:22.864Z,31.69
2023-03-10T02:47:58.800Z,31.46
2023-03-10T02:48:34.648Z,31.43
2023-03-10T02:49:10.132Z,31.32
2023-03-10T02:49:45.960Z,31.49
2023-03-10T02:50:21.737Z,31.45
2023-03-10T02:50:57.451Z,31.56
2023-03-10T02:51:33.693Z,31.40
2023-03-10T02:52:09.651Z,31.36
2023-03-10T02:52:45.842Z,31.66
2023-03-10T02:53:21.954Z,31.61
2023-03-10T02:53:57.703Z,31.50
2023-03-10T02:54:33.316Z,31.59
2023-03-10T02:55:09.360Z,31.40
2023-03-10T02:55:45.186Z,31.73
2023-03-10T02:56:21.276Z,31.61
2023-03-10T02:56:57.553Z,31.56
2023-03-10T02:57:33.411Z,31.59
2023-03-10T02:58:09.481Z,31.41
2023-03-10T02:58:45.434Z,31.61
2023-03-10T02:59:21.083Z,31.50
2023-03-10T02:59:56.680Z,31.70
2023-03-10T03:00:32.944Z,31.55
2023-03-10T03:01:09.402Z,31.52
2023-03-10T03:01:46.058Z,31.59
2023-03-10T03:02:23.042Z,31.50
2023-03-10T03:02:58.774Z,31.69
2023-03-10T03:03:35.013Z,31.51
2023-03-10T03:04:11.209Z,31.59
2023-03-10T03:04:46.428Z,31.38
2023-03-10T03:05:22.915Z,31.49
2023-03-10T03:05:59.323Z,31.55
2023-03-10T03:06:35.241Z,31.63
2023-03-10T03:07:11.303Z,31.47
2023-03-10T03:07:47.020Z,31.56
2023-03-10T03:08:22.853Z,31.55
2023-03-10T03:08:58.925Z,31.56
2023-03-10T03:09:34.587Z,31.52
2023-03-10T03:10:10.807Z,31.43
2023-03-10T03:10:45.942Z,31.44
2023-03-10T03:11:21.996Z,31.48
2023-03-10T03:11:57.858Z,31.71
2023-03-10T03:12:33.745Z,31.58
2023-03-10T03:13:09.736Z,31.52
2023-03-10T03:13:45.790Z,31.45
2023-03-10T03:14:21.224Z,31.69
2023-03-10T03:14:57.206Z,31.56
2023-03-10T03:15:33.055Z,31.51
2023-03-10T03:16:08.596Z,31.49
2023-03-10T03:16:44.526Z,31.55
2023-03-10T03:17:20.569Z,31.53
2023-03-10T03:17:56.597Z,31.38
2023-03-10T03:18:32.778Z,31.45
2023-03-10T03:19:09.284Z,31.55
2023-03-10T03:19:44.866Z,31.41
2023-03-10T03:20:21.075Z,31.49
2023-03-10T03:20:56.645Z,31.53
2023-03-10T03:21:32.178Z,31.50
2023-03-10T03:22:07.716Z,31.58
2023-03-10T03:22:44.184Z,31.71
2023-03-10T03:23:20.464Z,31.51
2023-03-10T03:23:56.421Z,31.49
2023-03-10T03:24:32.134Z,31.34
2023-03-10T03:25:08.387Z,31.57
2023-03-10T03:25:44.801Z,31.58
2023-03-10T03:26:20.333Z,31.61
2023-03-10T03:26:55.912Z,31.53
2023-03-10T03:27:31.981Z,31.50
2023-03-10T03:28:07.842Z,31.57
2023-03-10T03:28:44.036Z,31.50
2023-03-10T03:29:19.907Z,31.52
2023-03-10T03:29:55.908Z,31.50
2023-03-10T03:30:32.144Z,31.44
2023-03-10T03:31:08.401Z,31.57
2023-03-10T03:31:44.277Z,31.55
2023-03-10T03:32:20.037Z,31.60
2023-03-10T03:32:56.042Z,31.67
2023-03-10T03:33:31.863Z,31.58
2023-03-10T03:34:08.243Z,31.55
2023-03-10T03:34:44.819Z,31.44
2023-03-10T03:35:20.588Z,31.46
2023-03-10T03:35:56.242Z,31.67
2023-03-10T03:36:32.668Z,31.43
2023-03-10T03:37:08.393Z,31.72
2023-03-10T03:37:43.615Z,31.49
2023-03-10T03:38:19.490Z,31.49
2023-03-10T03:38:55.733Z,31.55
2023-03-10T03:39:31.507Z,31.56
2023-03-10T03:40:07.866Z,31.36
2023-03-10T03:40:43.709Z,31.59
2023-03-10T03:41:19.600Z,31.74
2023-03-10T03:41:55.789Z,31.54
2023-03-10T03:42:31.613Z,31.59
2023-03-10T03:43:07.339Z,31.64
2023-03-10T03:43:43.294Z,31.74
2023-03-10T03:44:18.991Z,31.67
2023-03-10T03:44:55.231Z,31.57
2023-03-10T03:45:31.337Z,31.53
2023-03-10T03:46:06.818Z,31.69
2023-03-10T03:46:42.730Z,31.59
2023-03-10T03:47:19.098Z,31.63
2023-03-10T03:47:54.523Z,31.61
2023-03-10T03:48:30.055Z,31.52
2023-03-10T03:49:05.486Z,31.50
2023-03-10T03:49:41.252Z,31.46
2023-03-10T03:50:16.459Z,31.54
2023-03-10T03:50:52.687Z,31.46
2023-03-10T03:51:28.238Z,31.56
2023-03-10T03:52:04.334Z,31.68
2023-03-10T03:52:40.558Z,31.41
2023-03-10T03:53:16.553Z,31.47
2023-03-10T03:53:52.489Z,31.38
2023-03-10T03:54:28.304Z,31.48
2023-03-10T03:55:03.793Z,31.72
2023-03-10T03:55:39.377Z,31.59
2023-03-10T03:56:14.955Z,31.48
2023-03-10T03:56:51.188Z,31.53
2023-03-10T03:57:27.355Z,31.50
2023-03-10T03:58:03.611Z,31.40
2023-03-10T03:58:39.466Z,31.49
2023-03-10T03:59:15.388Z,31.52
2023-03-10T03:59:51.210Z,31.35
2023-03-10T04:00:27.068Z,31.33
2023-03-10T04:01:02.407Z,31.58
2023-03-10T04:01:38.432Z,31.59
2023-03-10T04:02:14.463Z,31.56
2023-03-10T04:02:50.672Z,31.53
2023-03-10T04:03:26.327Z,31.56
2023-03-10T04:04:02.666Z,31.51
2023-03-10T04:04:38.585Z,31.43
2023-03-10T04:05:14.436Z,31.42
2023-03-10T04:05:49.991Z,31.46
2023-03-10T04:06:25.386Z,31.38
2023-03-10T04:07:01.393Z,31.36
2023-03-10T04:07:37.447Z,31.40
2023-03-10T04:08:13.458Z,31.49
2023-03-10T04:08:49.888Z,31.43
2023-03-10T04:09:25.727Z,31.33
2023-03-10T04:10:01.700Z,31.42
2023-03-10T04:10:37.638Z,31.32
2023-03-10T04:11:13.822Z,31.50
2023-03-10T04:11:49.293Z,31.48
2023-03-10T04:12:25.218Z,31.43
2023-03-10T04:13:01.288Z,31.34
2023-03-10T04:13:37.491Z,31.41
2023-03-10T04:14:13.695Z,31.40
2023-03-10T04:14:49.518Z,31.41
2023-03-10T04:15:25.556Z,31.33
2023-03-10T04:16:01.767Z,31.34
2023-03-10T04:16:37.316Z,31.51
2023-03-10T04:17:13.245Z,31.66
2023-03-10T04:17:49.754Z,31.54
2023-03-10T04:18:25.275Z,31.65
2023-03-10T04:19:01.912Z,31.39
2023-03-10T04:19:38.175Z,31.39
2023-03-10T04:20:15.279Z,31.41
2023-03-10T04:20:51.734Z,31.36
2023-03-10T04:21:28.586Z,31.25
2023-03-10T04:22:04.481Z,31.34
2023-03-10T04:22:40.279Z,31.51
2023-03-10T04:23:16.966Z,31.47
2023-03-10T04:23:53.348Z,31.42
2023-03-10T04:24:29.495Z,31.46
2023-03-10T04:25:05.820Z,31.61
2023-03-10T04:25:41.940Z,31.35
2023-03-10T04:26:17.829Z,31.58
2023-03-10T04:26:53.792Z,31.62
2023-03-10T04:27:29.684Z,31.42
2023-03-10T04:28:05.267Z,31.39
2023-03-10T04:28:41.222Z,31.50
2023-03-10T04:29:16.807Z,31.39
2023-03-10T04:29:52.337Z,31.42
2023-03-10T04:30:27.892Z,31.48
2023-03-10T04:31:03.805Z,31.32
2023-03-10T04:31:39.813Z,31.36
2023-03-10T04:32:15.856Z,31.34
2023-03-10T04:32:51.808Z,31.55
2023-03-10T04:33:27.736Z,31.32
2023-03-10T04:34:03.237Z,31.43
2023-03-10T04:34:39.324Z,31.44
2023-03-10T04:35:15.134Z,31.44
2023-03-10T04:35:50.656Z,31.40
2023-03-10T04:36:26.337Z,31.44
2023-03-10T04:37:02.553Z,31.41
2023-03-10T04:37:38.688Z,31.40
2023-03-10T04:38:14.372Z,31.49
2023-03-10T04:38:50.169Z,31.54
2023-03-10T04:39:26.097Z,31.53
2023-03-10T04:40:02.346Z,31.51
2023-03-10T04:40:38.261Z,31.42
2023-03-10T04:41:13.996Z,31.42
2023-03-10T04:41:50.066Z,31.58
2023-03-10T04:42:26.335Z,31.51
2023-03-10T04:43:02.354Z,31.57
2023-03-10T04:43:39.127Z,31.56
2023-03-10T04:44:29.767Z,31.47
2023-03-10T04:45:06.105Z,31.52
2023-03-10T04:45:41.697Z,31.66
2023-03-10T04:46:17.323Z,31.41
2023-03-10T04:46:53.440Z,31.40
2023-03-10T04:47:29.472Z,31.51
2023-03-10T04:48:05.309Z,31.39
2023-03-10T04:48:41.200Z,31.54
2023-03-10T04:49:16.743Z,31.60
2023-03-10T04:49:52.963Z,31.52
2023-03-10T04:50:28.904Z,31.56
2023-03-10T04:51:04.475Z,31.60
2023-03-10T04:51:40.015Z,31.56
2023-03-10T04:52:16.678Z,31.61
2023-03-10T04:52:53.056Z,31.49
2023-03-10T04:53:28.616Z,31.52
2023-03-10T04:54:04.354Z,31.56
2023-03-10T04:54:40.168Z,31.49
2023-03-10T04:55:16.230Z,31.49
2023-03-10T04:55:51.821Z,31.52
2023-03-10T04:56:27.431Z,31.48
2023-03-10T04:57:03.825Z,31.44
2023-03-10T04:57:39.719Z,31.44
2023-03-10T04:58:15.444Z,31.57
2023-03-10T04:58:51.555Z,31.57
2023-03-10T04:59:27.471Z,31.49
2023-03-10T05:00:04.187Z,31.42
2023-03-10T05:00:47.438Z,31.55
2023-03-10T05:01:28.200Z,31.49
2023-03-10T05:02:03.633Z,31.43
2023-03-10T05:02:39.639Z,31.45
2023-03-10T05:03:16.002Z,31.47
2023-03-10T05:03:52.424Z,31.43
2023-03-10T05:04:28.229Z,31.54
2023-03-10T05:05:04.589Z,31.43
2023-03-10T05:05:40.355Z,31.45
2023-03-10T05:06:15.560Z,31.59
2023-03-10T05:06:51.283Z,31.51
2023-03-10T05:07:27.065Z,31.50
2023-03-10T05:08:03.104Z,31.43
2023-03-10T05:08:39.201Z,31.51
2023-03-10T05:09:15.063Z,31.65
2023-03-10T05:09:50.939Z,31.52
2023-03-10T05:10:26.560Z,31.48
2023-03-10T05:11:02.749Z,31.30
2023-03-10T05:11:38.369Z,31.57
2023-03-10T05:12:13.561Z,31.46
2023-03-10T05:12:50.152Z,31.48
2023-03-10T05:13:25.673Z,31.51
2023-03-10T05:14:01.848Z,31.59
2023-03-10T05:14:38.002Z,31.45
2023-03-10T05:15:14.628Z,31.51
2023-03-10T05:15:52.073Z,31.38
2023-03-10T05:16:28.409Z,31.46
2023-03-10T05:17:03.856Z,31.39
2023-03-10T05:17:39.494Z,31.49
2023-03-10T05:18:15.511Z,31.60
2023-03-10T05:18:51.426Z,31.44
2023-03-10T05:19:27.489Z,31.40
2023-03-10T05:20:03.537Z,31.55
2023-03-10T05:20:39.451Z,31.48
2023-03-10T05:21:15.017Z,31.62
2023-03-10T05:21:50.983Z,31.57
2023-03-10T05:22:26.978Z,31.56
2023-03-10T05:23:02.466Z,31.40
2023-03-10T05:23:38.584Z,31.48
2023-03-10T05:24:14.473Z,31.48
2023-03-10T05:24:50.635Z,31.39
2023-03-10T05:25:27.237Z,31.48
2023-03-10T05:26:02.931Z,31.58
2023-03-10T05:26:39.218Z,31.41
2023-03-10T05:27:15.234Z,31.38
2023-03-10T05:27:50.997Z,31.45
2023-03-10T05:28:26.818Z,31.37
2023-03-10T05:29:02.817Z,31.49
2023-03-10T05:29:38.793Z,31.52
2023-03-10T05:30:15.178Z,31.44
2023-03-10T05:30:51.152Z,31.38
2023-03-10T05:31:27.167Z,31.35
2023-03-10T05:32:02.836Z,31.38
2023-03-10T05:32:39.001Z,31.33
2023-03-10T05:33:14.761Z,31.34
2023-03-10T05:33:50.499Z,31.51
2023-03-10T05:34:26.011Z,31.34
2023-03-10T05:35:01.771Z,31.43
2023-03-10T05:35:38.372Z,31.30
2023-03-10T05:36:14.525Z,31.45
2023-03-10T05:36:50.516Z,31.38
2023-03-10T05:37:26.681Z,31.47
2023-03-10T05:38:02.387Z,31.46
2023-03-10T05:38:38.235Z,31.31
2023-03-10T05:39:13.705Z,31.66
2023-03-10T05:39:49.969Z,31.35
2023-03-10T05:40:25.424Z,31.43
2023-03-10T05:41:01.472Z,31.40
2023-03-10T05:41:37.852Z,31.33
2023-03-10T05:42:13.760Z,31.49
2023-03-10T05:42:49.781Z,31.49
2023-03-10T05:43:25.898Z,31.46
2023-03-10T05:44:01.403Z,31.39
2023-03-10T05:44:37.018Z,31.50
2023-03-10T05:45:13.069Z,31.41
2023-03-10T05:45:48.658Z,31.50
2023-03-10T05:46:24.976Z,31.42
2023-03-10T05:47:01.002Z,31.43
2023-03-10T05:47:36.947Z,31.44
2023-03-10T05:48:13.323Z,31.47
2023-03-10T05:48:48.909Z,31.53
2023-03-10T05:49:24.826Z,31.27
2023-03-10T05:50:00.449Z,31.22
2023-03-10T05:50:36.420Z,31.35
2023-03-10T05:51:12.301Z,31.31
2023-03-10T05:51:48.216Z,31.33
2023-03-10T05:52:24.448Z,31.24
2023-03-10T05:53:00.694Z,31.39
2023-03-10T05:53:37.074Z,31.33
2023-03-10T05:54:12.965Z,31.38
2023-03-10T05:54:49.314Z,31.37
2023-03-10T05:55:24.912Z,31.43
2023-03-10T05:56:00.840Z,31.29
2023-03-10T05:56:36.708Z,31.58
2023-03-10T05:57:14.007Z,31.55
2023-03-10T05:57:49.491Z,31.43
2023-03-10T05:58:25.462Z,31.37
2023-03-10T05:59:01.212Z,31.39
2023-03-10T05:59:37.686Z,31.47
2023-03-10T06:00:13.977Z,31.56
2023-03-10T06:00:49.648Z,31.43
2023-03-10T06:01:25.739Z,31.24
2023-03-10T06:02:01.607Z,31.38
2023-03-10T06:02:37.675Z,31.42
2023-03-10T06:03:14.177Z,31.30
2023-03-10T06:03:49.909Z,31.42
2023-03-10T06:04:26.410Z,31.59
2023-03-10T06:05:02.701Z,31.32
2023-03-10T06:05:38.978Z,31.41
2023-03-10T06:06:14.573Z,31.37
2023-03-10T06:06:50.099Z,31.43
2023-03-10T06:07:26.433Z,31.49
2023-03-10T06:08:02.901Z,31.23
2023-03-10T06:08:38.876Z,31.38
2023-03-10T06:09:15.500Z,31.28
2023-03-10T06:09:51.593Z,31.30
2023-03-10T06:10:28.047Z,31.32
2023-03-10T06:11:04.224Z,31.17
2023-03-10T06:11:39.953Z,31.35
2023-03-10T06:12:15.175Z,31.38
2023-03-10T06:12:51.226Z,31.43
2023-03-10T06:13:27.669Z,31.46
2023-03-10T06:14:03.527Z,31.42
2023-03-10T06:14:39.715Z,31.52
2023-03-10T06:15:16.207Z,31.53
2023-03-10T06:15:52.907Z,31.32
2023-03-10T06:16:29.273Z,31.36
2023-03-10T06:17:04.891Z,31.42
2023-03-10T06:17:40.424Z,31.43
2023-03-10T06:18:16.974Z,31.28
2023-03-10T06:18:53.553Z,31.38
2023-03-10T06:19:29.323Z,31.49
2023-03-10T06:20:05.140Z,31.50
2023-03-10T06:20:40.927Z,31.40
2023-03-10T06:21:17.531Z,31.36
2023-03-10T06:21:53.614Z,31.64
2023-03-10T06:22:31.162Z,31.32
2023-03-10T06:23:06.769Z,31.41
2023-03-10T06:23:43.135Z,31.49
2023-03-10T06:24:19.409Z,31.24
2023-03-10T06:24:55.485Z,31.34
2023-03-10T06:25:30.991Z,31.47
2023-03-10T06:26:07.208Z,31.32
2023-03-10T06:26:42.821Z,31.43
2023-03-10T06:27:18.756Z,31.39
2023-03-10T06:27:54.832Z,31.38
2023-03-10T06:28:30.351Z,31.29
2023-03-10T06:29:06.744Z,31.43
2023-03-10T06:29:42.801Z,31.50
2023-03-10T06:30:18.469Z,31.33
2023-03-10T06:30:55.287Z,31.39
2023-03-10T06:31:30.510Z,31.42
2023-03-10T06:32:06.157Z,31.38
2023-03-10T06:32:41.984Z,31.48
2023-03-10T06:33:18.342Z,31.48
2023-03-10T06:33:55.080Z,31.51
2023-03-10T06:34:30.851Z,31.48
2023-03-10T06:35:07.190Z,31.47
2023-03-10T06:35:43.198Z,31.42
2023-03-10T06:36:19.293Z,31.51
2023-03-10T06:36:54.868Z,31.40
2023-03-10T06:37:30.691Z,31.44
2023-03-10T06:38:06.265Z,31.38
2023-03-10T06:38:42.651Z,31.36
2023-03-10T06:39:18.964Z,31.57
2023-03-10T06:39:55.027Z,31.45
2023-03-10T06:40:30.957Z,31.39
2023-03-10T06:41:07.257Z,31.37
2023-03-10T06:41:42.828Z,31.50
2023-03-10T06:42:18.368Z,31.55
2023-03-10T06:42:54.961Z,31.49
2023-03-10T06:43:31.021Z,31.50
2023-03-10T06:44:06.718Z,31.69
2023-03-10T06:44:42.621Z,31.63
2023-03-10T06:45:19.306Z,31.59
2023-03-10T06:45:55.566Z,31.41
2023-03-10T06:46:31.957Z,31.53
2023-03-10T06:47:07.847Z,31.63
2023-03-10T06:47:43.087Z,31.55
2023-03-10T06:48:19.126Z,31.71
2023-03-10T06:48:55.504Z,31.69
2023-03-10T06:49:31.567Z,31.70
2023-03-10T06:50:07.980Z,31.69
2023-03-10T06:50:43.584Z,31.62
2023-03-10T06:51:19.934Z,31.87
2023-03-10T06:51:55.479Z,31.92
2023-03-10T06:52:30.808Z,31.63
2023-03-10T06:53:06.724Z,31.82
2023-03-10T06:53:43.083Z,31.74
2023-03-10T06:54:19.192Z,31.88
2023-03-10T06:54:56.132Z,31.83
2023-03-10T06:55:31.863Z,31.74
2023-03-10T06:56:07.986Z,31.83
2023-03-10T06:56:44.442Z,31.67
2023-03-10T06:57:21.061Z,31.75
2023-03-10T06:57:56.087Z,31.72
2023-03-10T06:58:31.697Z,31.69
2023-03-10T06:59:07.522Z,31.59
2023-03-10T06:59:43.768Z,31.65
2023-03-10T07:00:19.424Z,31.56
2023-03-10T07:00:56.148Z,31.67
2023-03-10T07:01:32.525Z,31.62
2023-03-10T07:02:08.313Z,31.61
2023-03-10T07:02:44.266Z,31.43
2023-03-10T07:03:21.122Z,31.60
2023-03-10T07:03:57.976Z,31.59
2023-03-10T07:04:35.169Z,31.60
2023-03-10T07:05:12.361Z,31.63
2023-03-10T07:05:48.757Z,31.60
2023-03-10T07:06:25.407Z,31.59
2023-03-10T07:07:01.365Z,31.27
2023-03-10T07:07:37.327Z,31.47
2023-03-10T07:08:13.672Z,31.68
2023-03-10T07:08:49.918Z,31.61
2023-03-10T07:09:26.073Z,31.46
2023-03-10T07:10:01.505Z,31.43
2023-03-10T07:10:37.918Z,31.59
2023-03-10T07:11:14.570Z,31.77
2023-03-10T07:11:50.391Z,31.78
2023-03-10T07:12:26.090Z,31.70
2023-03-10T07:13:01.721Z,31.73
2023-03-10T07:13:37.968Z,31.74
2023-03-10T07:14:13.641Z,31.75
2023-03-10T07:14:49.102Z,31.61
2023-03-10T07:15:24.875Z,31.79
2023-03-10T07:16:01.046Z,31.65
2023-03-10T07:16:36.855Z,31.63
2023-03-10T07:17:12.721Z,31.69
2023-03-10T07:17:48.648Z,31.57
2023-03-10T07:18:24.556Z,31.64
2023-03-10T07:19:00.757Z,31.66
2023-03-10T07:19:36.218Z,31.73
2023-03-10T07:20:12.449Z,31.77
2023-03-10T07:20:48.295Z,31.77
2023-03-10T07:21:24.467Z,31.74
2023-03-10T07:22:00.141Z,31.70
2023-03-10T07:22:36.062Z,31.86
2023-03-10T07:23:12.336Z,31.64
2023-03-10T07:23:47.388Z,31.58
2023-03-10T07:24:23.635Z,31.92
2023-03-10T07:24:59.578Z,31.61
2023-03-10T07:25:35.487Z,31.86
2023-03-10T07:26:11.424Z,32.00
2023-03-10T07:26:47.706Z,31.77
2023-03-10T07:27:24.138Z,31.93
2023-03-10T07:27:59.961Z,31.84
2023-03-10T07:28:35.785Z,31.78
2023-03-10T07:29:10.950Z,31.75
2023-03-10T07:29:46.825Z,31.75
2023-03-10T07:30:23.287Z,31.70
2023-03-10T07:30:58.949Z,31.71
2023-03-10T07:31:34.878Z,31.71
2023-03-10T07:32:11.272Z,31.80
2023-03-10T07:32:47.338Z,31.65
2023-03-10T07:33:22.685Z,31.78
2023-03-10T07:33:58.230Z,31.88
2023-03-10T07:34:33.840Z,31.82
2023-03-10T07:35:09.403Z,31.67
2023-03-10T07:35:46.083Z,31.69
2023-03-10T07:36:22.407Z,31.57
2023-03-10T07:36:58.599Z,31.70
2023-03-10T07:37:34.625Z,31.75
2023-03-10T07:38:10.541Z,31.57
2023-03-10T07:38:46.514Z,31.61
2023-03-10T07:39:22.201Z,31.76
2023-03-10T07:39:57.776Z,31.77
2023-03-10T07:40:33.551Z,31.79
2023-03-10T07:41:09.822Z,31.94
2023-03-10T07:41:45.778Z,31.88
2023-03-10T07:42:21.376Z,31.81
2023-03-10T07:42:57.478Z,31.84
2023-03-10T07:43:33.955Z,31.81
2023-03-10T07:44:09.918Z,31.78